Baltimore, Maryland
Traffic Map
Current Weather Conditions
Baltimore, Maryland
Overcast Drizzle
Overcast
67°
Feels Like: 67°
Wind Chill: 67° Ceiling: 400
Heat Index: 67° Visibility: 1.7mi
Dew Point: 67° Wind: 7mph
Humidity: 100% Direction: 80° (E)
Pressure: 29.83in Gusts: 0mph
Raw Report DataKBWI 230754Z 08006KT 1 3/4SM -DZ BR OVC004 19/19 A2983 RMK AO2 CIG 003V008 SLP100 P0001 T01940194
Traffic Incident Summary
Active as of:
Severity:
Category:
InformationThere was an issue retrieving the traffic information for this location. Please try a different location or try again shortly.
Advertisements